sensor_id;sensor_type;location;lat;lon;timestamp;P1;durP1;ratioP1;P2;durP2;ratioP2
38089;SDS011;23904;52.322;10.232;2022-09-20T00:00:14;22.63;;;3.13;;
38089;SDS011;23904;52.322;10.232;2022-09-20T00:02:39;15.68;;;2.70;;
38089;SDS011;23904;52.322;10.232;2022-09-20T00:05:05;15.23;;;2.72;;
38089;SDS011;23904;52.322;10.232;2022-09-20T00:07:32;13.50;;;2.72;;
38089;SDS011;23904;52.322;10.232;2022-09-20T00:09:58;14.65;;;2.53;;
38089;SDS011;23904;52.322;10.232;2022-09-20T00:12:23;12.90;;;2.67;;
38089;SDS011;23904;52.322;10.232;2022-09-20T00:14:50;21.17;;;3.38;;
38089;SDS011;23904;52.322;10.232;2022-09-20T00:17:16;16.95;;;2.47;;
38089;SDS011;23904;52.322;10.232;2022-09-20T00:19:42;12.00;;;3.38;;
38089;SDS011;23904;52.322;10.232;2022-09-20T00:22:07;13.23;;;2.47;;
38089;SDS011;23904;52.322;10.232;2022-09-20T00:24:33;12.63;;;3.05;;
38089;SDS011;23904;52.322;10.232;2022-09-20T00:27:00;11.88;;;3.55;;
38089;SDS011;23904;52.322;10.232;2022-09-20T00:29:27;16.45;;;3.25;;
38089;SDS011;23904;52.322;10.232;2022-09-20T00:31:52;17.33;;;4.07;;
38089;SDS011;23904;52.322;10.232;2022-09-20T00:34:18;14.13;;;3.00;;
38089;SDS011;23904;52.322;10.232;2022-09-20T00:37:02;14.07;;;4.53;;
38089;SDS011;23904;52.322;10.232;2022-09-20T00:39:28;24.48;;;3.95;;
38089;SDS011;23904;52.322;10.232;2022-09-20T00:41:54;19.27;;;2.88;;
38089;SDS011;23904;52.322;10.232;2022-09-20T00:44:39;16.33;;;3.22;;
38089;SDS011;23904;52.322;10.232;2022-09-20T00:47:12;16.80;;;3.08;;
38089;SDS011;23904;52.322;10.232;2022-09-20T00:55:51;18.83;;;3.95;;
38089;SDS011;23904;52.322;10.232;2022-09-20T00:58:34;13.05;;;4.03;;
38089;SDS011;23904;52.322;10.232;2022-09-20T01:01:07;20.35;;;6.30;;
38089;SDS011;23904;52.322;10.232;2022-09-20T01:03:35;24.80;;;5.28;;
38089;SDS011;23904;52.322;10.232;2022-09-20T01:06:03;15.52;;;3.60;;
38089;SDS011;23904;52.322;10.232;2022-09-20T01:08:34;21.98;;;4.55;;
38089;SDS011;23904;52.322;10.232;2022-09-20T01:11:01;13.13;;;4.97;;
38089;SDS011;23904;52.322;10.232;2022-09-20T01:13:27;14.52;;;2.97;;
38089;SDS011;23904;52.322;10.232;2022-09-20T01:15:52;15.70;;;3.53;;
38089;SDS011;23904;52.322;10.232;2022-09-20T01:18:20;17.50;;;3.35;;
38089;SDS011;23904;52.322;10.232;2022-09-20T01:20:47;11.85;;;3.55;;
38089;SDS011;23904;52.322;10.232;2022-09-20T01:29:16;18.40;;;3.60;;
38089;SDS011;23904;52.322;10.232;2022-09-20T01:31:58;15.45;;;3.70;;
38089;SDS011;23904;52.322;10.232;2022-09-20T01:34:34;18.95;;;3.88;;
38089;SDS011;23904;52.322;10.232;2022-09-20T01:42:51;12.25;;;3.75;;
38089;SDS011;23904;52.322;10.232;2022-09-20T01:45:31;17.45;;;4.57;;
38089;SDS011;23904;52.322;10.232;2022-09-20T01:48:12;15.13;;;4.35;;
38089;SDS011;23904;52.322;10.232;2022-09-20T01:51:19;17.10;;;4.80;;
38089;SDS011;23904;52.322;10.232;2022-09-20T01:54:08;18.95;;;4.82;;
38089;SDS011;23904;52.322;10.232;2022-09-20T01:57:17;13.40;;;4.57;;
38089;SDS011;23904;52.322;10.232;2022-09-20T02:00:27;19.77;;;4.57;;
38089;SDS011;23904;52.322;10.232;2022-09-20T02:03:16;18.35;;;4.93;;
38089;SDS011;23904;52.322;10.232;2022-09-20T02:06:19;16.88;;;4.90;;
38089;SDS011;23904;52.322;10.232;2022-09-20T02:14:59;16.23;;;5.40;;
38089;SDS011;23904;52.322;10.232;2022-09-20T02:18:01;17.98;;;4.65;;
38089;SDS011;23904;52.322;10.232;2022-09-20T02:20:49;19.63;;;5.00;;
38089;SDS011;23904;52.322;10.232;2022-09-20T02:26:40;20.45;;;5.20;;
38089;SDS011;23904;52.322;10.232;2022-09-20T02:29:15;17.30;;;5.43;;
38089;SDS011;23904;52.322;10.232;2022-09-20T02:37:49;18.52;;;5.80;;
38089;SDS011;23904;52.322;10.232;2022-09-20T02:49:38;16.00;;;7.18;;
38089;SDS011;23904;52.322;10.232;2022-09-20T02:52:35;23.13;;;7.63;;
38089;SDS011;23904;52.322;10.232;2022-09-20T02:55:58;18.90;;;7.30;;
38089;SDS011;23904;52.322;10.232;2022-09-20T03:01:58;22.75;;;9.05;;
38089;SDS011;23904;52.322;10.232;2022-09-20T03:16:05;27.05;;;11.32;;
38089;SDS011;23904;52.322;10.232;2022-09-20T03:18:59;28.80;;;11.60;;
38089;SDS011;23904;52.322;10.232;2022-09-20T03:30:51;31.58;;;12.85;;
38089;SDS011;23904;52.322;10.232;2022-09-20T03:33:59;32.42;;;12.45;;
38089;SDS011;23904;52.322;10.232;2022-09-20T03:37:22;19.40;;;11.77;;
38089;SDS011;23904;52.322;10.232;2022-09-20T03:43:00;23.08;;;12.35;;
38089;SDS011;23904;52.322;10.232;2022-09-20T03:48:40;25.40;;;13.20;;
38089;SDS011;23904;52.322;10.232;2022-09-20T03:51:44;22.98;;;13.02;;
38089;SDS011;23904;52.322;10.232;2022-09-20T03:57:54;23.90;;;13.20;;
38089;SDS011;23904;52.322;10.232;2022-09-20T04:00:35;28.65;;;14.23;;
38089;SDS011;23904;52.322;10.232;2022-09-20T04:03:27;35.15;;;13.35;;
38089;SDS011;23904;52.322;10.232;2022-09-20T04:15:28;29.92;;;14.32;;
38089;SDS011;23904;52.322;10.232;2022-09-20T04:26:28;38.53;;;16.50;;
38089;SDS011;23904;52.322;10.232;2022-09-20T04:32:15;42.53;;;16.35;;
38089;SDS011;23904;52.322;10.232;2022-09-20T04:38:27;33.88;;;16.10;;
38089;SDS011;23904;52.322;10.232;2022-09-20T04:53:51;30.33;;;17.20;;
38089;SDS011;23904;52.322;10.232;2022-09-20T05:05:38;37.85;;;15.43;;
38089;SDS011;23904;52.322;10.232;2022-09-20T05:08:49;33.38;;;17.25;;
38089;SDS011;23904;52.322;10.232;2022-09-20T05:14:23;30.25;;;16.98;;
38089;SDS011;23904;52.322;10.232;2022-09-20T05:17:23;34.90;;;17.35;;
38089;SDS011;23904;52.322;10.232;2022-09-20T05:35:05;36.22;;;16.70;;
38089;SDS011;23904;52.322;10.232;2022-09-20T05:37:52;35.70;;;17.10;;
38089;SDS011;23904;52.322;10.232;2022-09-20T05:41:00;32.28;;;17.20;;
38089;SDS011;23904;52.322;10.232;2022-09-20T05:56:01;41.13;;;17.65;;
38089;SDS011;23904;52.322;10.232;2022-09-20T06:01:25;41.05;;;17.23;;
38089;SDS011;23904;52.322;10.232;2022-09-20T06:04:22;30.92;;;16.88;;
38089;SDS011;23904;52.322;10.232;2022-09-20T06:07:18;38.38;;;16.52;;
38089;SDS011;23904;52.322;10.232;2022-09-20T06:21:23;35.88;;;17.52;;
38089;SDS011;23904;52.322;10.232;2022-09-20T06:24:12;30.67;;;16.55;;
38089;SDS011;23904;52.322;10.232;2022-09-20T06:27:00;30.42;;;16.27;;
38089;SDS011;23904;52.322;10.232;2022-09-20T06:29:33;31.30;;;15.15;;
38089;SDS011;23904;52.322;10.232;2022-09-20T06:32:02;28.00;;;14.45;;
38089;SDS011;23904;52.322;10.232;2022-09-20T06:34:28;25.10;;;14.75;;
38089;SDS011;23904;52.322;10.232;2022-09-20T06:43:28;25.20;;;11.80;;
38089;SDS011;23904;52.322;10.232;2022-09-20T06:45:55;19.17;;;11.13;;
38089;SDS011;23904;52.322;10.232;2022-09-20T06:48:21;27.48;;;11.57;;
38089;SDS011;23904;52.322;10.232;2022-09-20T06:50:49;18.27;;;12.18;;
38089;SDS011;23904;52.322;10.232;2022-09-20T06:53:17;21.30;;;13.27;;
38089;SDS011;23904;52.322;10.232;2022-09-20T06:55:50;18.05;;;11.15;;
38089;SDS011;23904;52.322;10.232;2022-09-20T06:58:16;20.73;;;12.35;;
38089;SDS011;23904;52.322;10.232;2022-09-20T07:00:42;15.73;;;10.27;;
38089;SDS011;23904;52.322;10.232;2022-09-20T07:03:07;18.27;;;10.05;;
38089;SDS011;23904;52.322;10.232;2022-09-20T07:05:33;20.95;;;10.23;;
38089;SDS011;23904;52.322;10.232;2022-09-20T07:08:00;24.33;;;11.23;;
38089;SDS011;23904;52.322;10.232;2022-09-20T07:10:26;18.95;;;10.25;;
38089;SDS011;23904;52.322;10.232;2022-09-20T07:12:56;13.07;;;8.55;;
38089;SDS011;23904;52.322;10.232;2022-09-20T07:15:23;20.35;;;9.77;;
38089;SDS011;23904;52.322;10.232;2022-09-20T07:17:49;13.63;;;8.30;;
38089;SDS011;23904;52.322;10.232;2022-09-20T07:20:15;16.88;;;9.57;;
38089;SDS011;23904;52.322;10.232;2022-09-20T07:22:42;13.02;;;8.23;;
38089;SDS011;23904;52.322;10.232;2022-09-20T07:25:08;13.75;;;8.02;;
38089;SDS011;23904;52.322;10.232;2022-09-20T07:27:33;13.68;;;7.90;;
38089;SDS011;23904;52.322;10.232;2022-09-20T07:29:59;11.50;;;7.85;;
38089;SDS011;23904;52.322;10.232;2022-09-20T07:32:26;12.82;;;8.60;;
38089;SDS011;23904;52.322;10.232;2022-09-20T07:34:52;20.50;;;8.32;;
38089;SDS011;23904;52.322;10.232;2022-09-20T07:37:18;20.52;;;8.52;;
38089;SDS011;23904;52.322;10.232;2022-09-20T07:39:44;17.55;;;8.40;;
38089;SDS011;23904;52.322;10.232;2022-09-20T07:42:10;17.20;;;7.78;;
38089;SDS011;23904;52.322;10.232;2022-09-20T07:44:36;18.10;;;8.15;;
38089;SDS011;23904;52.322;10.232;2022-09-20T07:47:06;16.73;;;7.95;;
38089;SDS011;23904;52.322;10.232;2022-09-20T07:49:34;15.30;;;8.45;;
38089;SDS011;23904;52.322;10.232;2022-09-20T07:52:00;12.88;;;7.45;;
38089;SDS011;23904;52.322;10.232;2022-09-20T07:54:27;16.38;;;7.82;;
38089;SDS011;23904;52.322;10.232;2022-09-20T07:56:53;15.43;;;7.75;;
38089;SDS011;23904;52.322;10.232;2022-09-20T07:59:19;12.93;;;7.47;;
38089;SDS011;23904;52.322;10.232;2022-09-20T08:01:44;14.88;;;6.40;;
38089;SDS011;23904;52.322;10.232;2022-09-20T08:04:10;11.82;;;6.38;;
38089;SDS011;23904;52.322;10.232;2022-09-20T08:06:37;17.92;;;8.00;;
38089;SDS011;23904;52.322;10.232;2022-09-20T08:09:05;12.88;;;8.07;;
38089;SDS011;23904;52.322;10.232;2022-09-20T08:11:31;12.73;;;8.23;;
38089;SDS011;23904;52.322;10.232;2022-09-20T08:13:59;18.90;;;9.80;;
38089;SDS011;23904;52.322;10.232;2022-09-20T08:16:26;21.73;;;9.85;;
38089;SDS011;23904;52.322;10.232;2022-09-20T08:19:02;19.85;;;8.93;;
38089;SDS011;23904;52.322;10.232;2022-09-20T08:21:29;14.27;;;8.88;;
38089;SDS011;23904;52.322;10.232;2022-09-20T08:23:58;19.13;;;9.02;;
38089;SDS011;23904;52.322;10.232;2022-09-20T08:26:25;17.50;;;8.93;;
38089;SDS011;23904;52.322;10.232;2022-09-20T08:28:54;14.05;;;8.02;;
38089;SDS011;23904;52.322;10.232;2022-09-20T08:31:22;14.20;;;8.10;;
38089;SDS011;23904;52.322;10.232;2022-09-20T08:33:51;16.88;;;7.55;;
38089;SDS011;23904;52.322;10.232;2022-09-20T08:36:19;10.82;;;6.43;;
38089;SDS011;23904;52.322;10.232;2022-09-20T08:38:50;10.43;;;6.55;;
38089;SDS011;23904;52.322;10.232;2022-09-20T08:44:09;13.57;;;7.03;;
38089;SDS011;23904;52.322;10.232;2022-09-20T08:47:03;18.30;;;7.45;;
38089;SDS011;23904;52.322;10.232;2022-09-20T08:49:50;12.43;;;7.35;;
38089;SDS011;23904;52.322;10.232;2022-09-20T08:52:19;14.10;;;6.85;;
38089;SDS011;23904;52.322;10.232;2022-09-20T08:54:54;11.90;;;7.07;;
38089;SDS011;23904;52.322;10.232;2022-09-20T08:57:23;17.23;;;7.10;;
38089;SDS011;23904;52.322;10.232;2022-09-20T08:59:54;14.93;;;7.68;;
38089;SDS011;23904;52.322;10.232;2022-09-20T09:02:21;13.25;;;7.07;;
38089;SDS011;23904;52.322;10.232;2022-09-20T09:04:47;17.15;;;8.77;;
38089;SDS011;23904;52.322;10.232;2022-09-20T09:07:15;13.35;;;7.47;;
38089;SDS011;23904;52.322;10.232;2022-09-20T09:09:44;13.95;;;8.43;;
38089;SDS011;23904;52.322;10.232;2022-09-20T09:12:22;13.90;;;8.80;;
38089;SDS011;23904;52.322;10.232;2022-09-20T09:15:17;13.70;;;8.40;;
38089;SDS011;23904;52.322;10.232;2022-09-20T09:17:53;13.23;;;7.78;;
38089;SDS011;23904;52.322;10.232;2022-09-20T09:20:21;16.13;;;6.65;;
38089;SDS011;23904;52.322;10.232;2022-09-20T09:23:00;8.45;;;5.28;;
38089;SDS011;23904;52.322;10.232;2022-09-20T09:25:36;10.07;;;6.32;;
38089;SDS011;23904;52.322;10.232;2022-09-20T09:30:33;9.98;;;4.80;;
38089;SDS011;23904;52.322;10.232;2022-09-20T09:38:23;7.50;;;4.80;;
38089;SDS011;23904;52.322;10.232;2022-09-20T09:40:53;10.05;;;6.80;;
38089;SDS011;23904;52.322;10.232;2022-09-20T09:43:24;9.63;;;5.20;;
38089;SDS011;23904;52.322;10.232;2022-09-20T09:46:19;10.07;;;4.55;;
38089;SDS011;23904;52.322;10.232;2022-09-20T09:49:02;7.18;;;4.72;;
38089;SDS011;23904;52.322;10.232;2022-09-20T09:52:04;10.25;;;3.70;;
38089;SDS011;23904;52.322;10.232;2022-09-20T09:54:48;8.68;;;3.35;;
38089;SDS011;23904;52.322;10.232;2022-09-20T10:00:20;4.15;;;2.40;;
38089;SDS011;23904;52.322;10.232;2022-09-20T10:02:55;5.20;;;2.63;;
38089;SDS011;23904;52.322;10.232;2022-09-20T10:09:03;7.32;;;2.00;;
38089;SDS011;23904;52.322;10.232;2022-09-20T10:14:51;4.72;;;1.55;;
38089;SDS011;23904;52.322;10.232;2022-09-20T10:17:31;5.57;;;1.50;;
38089;SDS011;23904;52.322;10.232;2022-09-20T10:20:44;5.95;;;1.70;;
38089;SDS011;23904;52.322;10.232;2022-09-20T10:26:59;7.70;;;2.03;;
38089;SDS011;23904;52.322;10.232;2022-09-20T10:29:41;8.45;;;3.63;;
38089;SDS011;23904;52.322;10.232;2022-09-20T10:35:22;5.20;;;2.47;;
38089;SDS011;23904;52.322;10.232;2022-09-20T10:38:29;7.47;;;2.30;;
38089;SDS011;23904;52.322;10.232;2022-09-20T10:47:20;7.93;;;2.95;;
38089;SDS011;23904;52.322;10.232;2022-09-20T10:50:19;6.53;;;2.78;;
38089;SDS011;23904;52.322;10.232;2022-09-20T10:56:25;3.38;;;1.15;;
38089;SDS011;23904;52.322;10.232;2022-09-20T11:07:39;5.18;;;1.55;;
38089;SDS011;23904;52.322;10.232;2022-09-20T11:10:29;3.35;;;1.13;;
38089;SDS011;23904;52.322;10.232;2022-09-20T11:13:29;8.35;;;1.20;;
38089;SDS011;23904;52.322;10.232;2022-09-20T11:16:12;6.35;;;1.10;;
38089;SDS011;23904;52.322;10.232;2022-09-20T11:21:48;3.88;;;0.90;;
38089;SDS011;23904;52.322;10.232;2022-09-20T11:30:02;7.70;;;1.08;;
38089;SDS011;23904;52.322;10.232;2022-09-20T11:32:35;8.60;;;1.02;;
38089;SDS011;23904;52.322;10.232;2022-09-20T11:38:11;7.15;;;1.33;;
38089;SDS011;23904;52.322;10.232;2022-09-20T11:41:10;8.18;;;1.52;;
38089;SDS011;23904;52.322;10.232;2022-09-20T11:43:46;6.43;;;1.33;;
38089;SDS011;23904;52.322;10.232;2022-09-20T11:46:23;3.03;;;1.10;;
38089;SDS011;23904;52.322;10.232;2022-09-20T11:49:02;6.75;;;1.10;;
38089;SDS011;23904;52.322;10.232;2022-09-20T11:57:27;3.80;;;0.60;;
38089;SDS011;23904;52.322;10.232;2022-09-20T11:59:54;1.40;;;0.50;;
38089;SDS011;23904;52.322;10.232;2022-09-20T12:05:33;3.03;;;0.65;;
38089;SDS011;23904;52.322;10.232;2022-09-20T12:08:07;2.45;;;0.70;;
38089;SDS011;23904;52.322;10.232;2022-09-20T12:11:04;2.88;;;0.63;;
38089;SDS011;23904;52.322;10.232;2022-09-20T12:13:33;1.90;;;0.65;;
38089;SDS011;23904;52.322;10.232;2022-09-20T12:16:07;3.08;;;0.45;;
38089;SDS011;23904;52.322;10.232;2022-09-20T12:21:18;3.75;;;0.80;;
38089;SDS011;23904;52.322;10.232;2022-09-20T12:28:45;4.22;;;1.23;;
38089;SDS011;23904;52.322;10.232;2022-09-20T12:33:54;6.07;;;1.10;;
38089;SDS011;23904;52.322;10.232;2022-09-20T12:44:25;4.25;;;0.98;;
38089;SDS011;23904;52.322;10.232;2022-09-20T13:11:14;9.77;;;1.60;;
38089;SDS011;23904;52.322;10.232;2022-09-20T13:16:32;6.22;;;1.45;;
38089;SDS011;23904;52.322;10.232;2022-09-20T13:19:14;9.95;;;1.73;;
38089;SDS011;23904;52.322;10.232;2022-09-20T13:24:28;7.10;;;1.65;;
38089;SDS011;23904;52.322;10.232;2022-09-20T13:27:05;8.52;;;1.30;;
38089;SDS011;23904;52.322;10.232;2022-09-20T13:29:41;4.30;;;1.17;;
38089;SDS011;23904;52.322;10.232;2022-09-20T13:34:42;8.40;;;1.20;;
38089;SDS011;23904;52.322;10.232;2022-09-20T13:37:16;4.80;;;1.52;;
38089;SDS011;23904;52.322;10.232;2022-09-20T13:39:51;5.70;;;1.30;;
38089;SDS011;23904;52.322;10.232;2022-09-20T13:42:18;5.45;;;1.35;;
38089;SDS011;23904;52.322;10.232;2022-09-20T13:44:44;3.25;;;1.05;;
38089;SDS011;23904;52.322;10.232;2022-09-20T13:47:28;3.65;;;1.08;;
38089;SDS011;23904;52.322;10.232;2022-09-20T13:52:27;4.13;;;0.70;;
38089;SDS011;23904;52.322;10.232;2022-09-20T13:54:55;2.58;;;0.60;;
38089;SDS011;23904;52.322;10.232;2022-09-20T13:57:22;5.25;;;1.02;;
38089;SDS011;23904;52.322;10.232;2022-09-20T13:59:52;4.88;;;1.15;;
38089;SDS011;23904;52.322;10.232;2022-09-20T14:02:25;7.15;;;1.40;;
38089;SDS011;23904;52.322;10.232;2022-09-20T14:04:55;5.88;;;1.30;;
38089;SDS011;23904;52.322;10.232;2022-09-20T14:07:24;5.18;;;1.20;;
38089;SDS011;23904;52.322;10.232;2022-09-20T14:09:53;8.93;;;1.20;;
38089;SDS011;23904;52.322;10.232;2022-09-20T14:12:21;4.85;;;1.50;;
38089;SDS011;23904;52.322;10.232;2022-09-20T14:14:49;5.57;;;1.35;;
38089;SDS011;23904;52.322;10.232;2022-09-20T14:17:16;5.97;;;1.35;;
38089;SDS011;23904;52.322;10.232;2022-09-20T14:19:48;10.48;;;1.40;;
38089;SDS011;23904;52.322;10.232;2022-09-20T14:25:22;6.65;;;1.20;;
38089;SDS011;23904;52.322;10.232;2022-09-20T14:27:41;6.70;;;1.10;;
38089;SDS011;23904;52.322;10.232;2022-09-20T14:30:26;9.15;;;2.45;;
38089;SDS011;23904;52.322;10.232;2022-09-20T14:33:00;6.53;;;1.90;;
38089;SDS011;23904;52.322;10.232;2022-09-20T14:35:27;3.22;;;1.13;;
38089;SDS011;23904;52.322;10.232;2022-09-20T14:37:58;9.45;;;1.15;;
38089;SDS011;23904;52.322;10.232;2022-09-20T14:40:31;3.72;;;0.85;;
38089;SDS011;23904;52.322;10.232;2022-09-20T14:45:49;6.18;;;1.52;;
38089;SDS011;23904;52.322;10.232;2022-09-20T14:48:40;5.75;;;1.27;;
38089;SDS011;23904;52.322;10.232;2022-09-20T14:53:42;7.60;;;1.60;;
38089;SDS011;23904;52.322;10.232;2022-09-20T14:56:15;7.35;;;1.48;;
38089;SDS011;23904;52.322;10.232;2022-09-20T14:59:01;6.47;;;1.80;;
38089;SDS011;23904;52.322;10.232;2022-09-20T15:02:00;3.97;;;0.75;;
38089;SDS011;23904;52.322;10.232;2022-09-20T15:04:32;2.58;;;0.75;;
38089;SDS011;23904;52.322;10.232;2022-09-20T15:07:02;8.20;;;1.23;;
38089;SDS011;23904;52.322;10.232;2022-09-20T15:09:31;3.38;;;0.90;;
38089;SDS011;23904;52.322;10.232;2022-09-20T15:11:59;2.67;;;0.80;;
38089;SDS011;23904;52.322;10.232;2022-09-20T15:14:37;4.80;;;1.50;;
38089;SDS011;23904;52.322;10.232;2022-09-20T15:17:05;4.70;;;1.17;;
38089;SDS011;23904;52.322;10.232;2022-09-20T15:19:34;5.43;;;1.20;;
38089;SDS011;23904;52.322;10.232;2022-09-20T15:21:59;4.97;;;1.10;;
38089;SDS011;23904;52.322;10.232;2022-09-20T15:24:25;3.83;;;1.23;;
38089;SDS011;23904;52.322;10.232;2022-09-20T15:26:51;4.60;;;1.05;;
38089;SDS011;23904;52.322;10.232;2022-09-20T15:29:17;4.47;;;1.08;;
38089;SDS011;23904;52.322;10.232;2022-09-20T15:31:43;2.78;;;0.90;;
38089;SDS011;23904;52.322;10.232;2022-09-20T15:34:11;2.83;;;1.10;;
38089;SDS011;23904;52.322;10.232;2022-09-20T15:36:38;4.65;;;1.00;;
38089;SDS011;23904;52.322;10.232;2022-09-20T15:39:05;4.00;;;1.10;;
38089;SDS011;23904;52.322;10.232;2022-09-20T15:41:31;2.65;;;0.68;;
38089;SDS011;23904;52.322;10.232;2022-09-20T15:43:57;5.40;;;1.20;;
38089;SDS011;23904;52.322;10.232;2022-09-20T15:46:23;3.35;;;0.90;;
38089;SDS011;23904;52.322;10.232;2022-09-20T15:48:51;5.30;;;0.95;;
38089;SDS011;23904;52.322;10.232;2022-09-20T15:51:18;3.53;;;1.15;;
38089;SDS011;23904;52.322;10.232;2022-09-20T15:53:44;2.35;;;0.85;;
38089;SDS011;23904;52.322;10.232;2022-09-20T15:56:22;2.85;;;0.88;;
38089;SDS011;23904;52.322;10.232;2022-09-20T15:58:52;4.82;;;0.90;;
38089;SDS011;23904;52.322;10.232;2022-09-20T16:01:24;5.30;;;0.80;;
38089;SDS011;23904;52.322;10.232;2022-09-20T16:04:05;3.15;;;0.80;;
38089;SDS011;23904;52.322;10.232;2022-09-20T16:06:33;3.08;;;0.90;;
38089;SDS011;23904;52.322;10.232;2022-09-20T16:08:59;3.15;;;1.27;;
38089;SDS011;23904;52.322;10.232;2022-09-20T16:11:25;4.57;;;1.15;;
38089;SDS011;23904;52.322;10.232;2022-09-20T16:13:52;5.25;;;1.08;;
38089;SDS011;23904;52.322;10.232;2022-09-20T16:16:19;2.47;;;1.00;;
38089;SDS011;23904;52.322;10.232;2022-09-20T16:18:45;1.92;;;0.82;;
38089;SDS011;23904;52.322;10.232;2022-09-20T16:21:30;4.78;;;1.20;;
38089;SDS011;23904;52.322;10.232;2022-09-20T16:23:56;4.40;;;0.80;;
38089;SDS011;23904;52.322;10.232;2022-09-20T16:26:24;4.47;;;1.25;;
38089;SDS011;23904;52.322;10.232;2022-09-20T16:28:52;2.17;;;1.10;;
38089;SDS011;23904;52.322;10.232;2022-09-20T16:31:33;2.97;;;0.90;;
38089;SDS011;23904;52.322;10.232;2022-09-20T16:34:13;1.98;;;0.93;;
38089;SDS011;23904;52.322;10.232;2022-09-20T16:36:44;3.92;;;1.15;;
38089;SDS011;23904;52.322;10.232;2022-09-20T16:39:12;6.55;;;1.30;;
38089;SDS011;23904;52.322;10.232;2022-09-20T16:41:39;5.20;;;1.45;;
38089;SDS011;23904;52.322;10.232;2022-09-20T16:44:05;6.38;;;2.00;;
38089;SDS011;23904;52.322;10.232;2022-09-20T16:46:31;5.68;;;1.40;;
38089;SDS011;23904;52.322;10.232;2022-09-20T16:49:01;5.72;;;1.38;;
38089;SDS011;23904;52.322;10.232;2022-09-20T16:51:34;5.70;;;1.52;;
38089;SDS011;23904;52.322;10.232;2022-09-20T16:54:05;2.40;;;1.02;;
38089;SDS011;23904;52.322;10.232;2022-09-20T16:56:36;4.47;;;1.13;;
38089;SDS011;23904;52.322;10.232;2022-09-20T16:59:14;4.00;;;1.08;;
38089;SDS011;23904;52.322;10.232;2022-09-20T17:01:42;4.07;;;1.20;;
38089;SDS011;23904;52.322;10.232;2022-09-20T17:04:09;3.40;;;1.10;;
38089;SDS011;23904;52.322;10.232;2022-09-20T17:06:37;4.65;;;1.40;;
38089;SDS011;23904;52.322;10.232;2022-09-20T17:09:04;2.97;;;1.45;;
38089;SDS011;23904;52.322;10.232;2022-09-20T17:11:32;3.85;;;1.02;;
38089;SDS011;23904;52.322;10.232;2022-09-20T17:14:00;4.20;;;0.93;;
38089;SDS011;23904;52.322;10.232;2022-09-20T17:16:27;3.10;;;1.10;;
38089;SDS011;23904;52.322;10.232;2022-09-20T17:18:56;4.18;;;1.27;;
38089;SDS011;23904;52.322;10.232;2022-09-20T17:21:25;7.30;;;1.48;;
38089;SDS011;23904;52.322;10.232;2022-09-20T17:23:53;7.40;;;1.85;;
38089;SDS011;23904;52.322;10.232;2022-09-20T17:26:22;5.38;;;1.63;;
38089;SDS011;23904;52.322;10.232;2022-09-20T17:29:01;5.25;;;1.70;;
38089;SDS011;23904;52.322;10.232;2022-09-20T17:31:35;4.20;;;1.80;;
38089;SDS011;23904;52.322;10.232;2022-09-20T17:34:05;3.28;;;1.55;;
38089;SDS011;23904;52.322;10.232;2022-09-20T17:36:43;6.22;;;2.00;;
38089;SDS011;23904;52.322;10.232;2022-09-20T17:39:11;6.53;;;1.70;;
38089;SDS011;23904;52.322;10.232;2022-09-20T17:41:39;3.80;;;1.70;;
38089;SDS011;23904;52.322;10.232;2022-09-20T17:44:10;2.85;;;1.50;;
38089;SDS011;23904;52.322;10.232;2022-09-20T17:46:36;6.03;;;1.83;;
38089;SDS011;23904;52.322;10.232;2022-09-20T17:49:08;7.85;;;3.05;;
38089;SDS011;23904;52.322;10.232;2022-09-20T17:51:37;5.20;;;2.03;;
38089;SDS011;23904;52.322;10.232;2022-09-20T17:54:06;5.18;;;2.40;;
38089;SDS011;23904;52.322;10.232;2022-09-20T17:56:32;2.92;;;1.88;;
38089;SDS011;23904;52.322;10.232;2022-09-20T17:59:03;6.55;;;2.70;;
38089;SDS011;23904;52.322;10.232;2022-09-20T18:01:30;9.70;;;4.93;;
38089;SDS011;23904;52.322;10.232;2022-09-20T18:03:59;18.05;;;10.70;;
38089;SDS011;23904;52.322;10.232;2022-09-20T18:06:27;20.65;;;12.02;;
38089;SDS011;23904;52.322;10.232;2022-09-20T18:08:59;20.02;;;12.77;;
38089;SDS011;23904;52.322;10.232;2022-09-20T18:11:37;16.58;;;10.07;;
38089;SDS011;23904;52.322;10.232;2022-09-20T18:14:07;12.35;;;6.78;;
38089;SDS011;23904;52.322;10.232;2022-09-20T18:19:07;14.00;;;7.40;;
38089;SDS011;23904;52.322;10.232;2022-09-20T18:21:34;11.35;;;5.90;;
38089;SDS011;23904;52.322;10.232;2022-09-20T18:24:05;8.15;;;4.68;;
38089;SDS011;23904;52.322;10.232;2022-09-20T18:26:33;9.38;;;3.58;;
38089;SDS011;23904;52.322;10.232;2022-09-20T18:29:00;6.65;;;3.25;;
38089;SDS011;23904;52.322;10.232;2022-09-20T18:34:08;5.88;;;2.90;;
38089;SDS011;23904;52.322;10.232;2022-09-20T18:36:42;5.30;;;2.25;;
38089;SDS011;23904;52.322;10.232;2022-09-20T18:39:16;6.22;;;1.88;;
38089;SDS011;23904;52.322;10.232;2022-09-20T18:41:53;5.55;;;2.00;;
38089;SDS011;23904;52.322;10.232;2022-09-20T18:44:20;6.13;;;1.63;;
38089;SDS011;23904;52.322;10.232;2022-09-20T18:46:47;4.25;;;1.40;;
38089;SDS011;23904;52.322;10.232;2022-09-20T18:49:14;2.53;;;1.05;;
38089;SDS011;23904;52.322;10.232;2022-09-20T18:51:41;3.95;;;1.88;;
38089;SDS011;23904;52.322;10.232;2022-09-20T18:54:08;7.43;;;1.67;;
38089;SDS011;23904;52.322;10.232;2022-09-20T18:56:36;3.20;;;1.50;;
38089;SDS011;23904;52.322;10.232;2022-09-20T18:59:12;4.43;;;1.45;;
38089;SDS011;23904;52.322;10.232;2022-09-20T19:07:35;6.28;;;1.65;;
38089;SDS011;23904;52.322;10.232;2022-09-20T19:10:13;3.70;;;1.50;;
38089;SDS011;23904;52.322;10.232;2022-09-20T19:18:48;8.18;;;2.63;;
38089;SDS011;23904;52.322;10.232;2022-09-20T19:21:56;3.95;;;1.50;;
38089;SDS011;23904;52.322;10.232;2022-09-20T19:27:29;4.03;;;1.50;;
38089;SDS011;23904;52.322;10.232;2022-09-20T19:29:55;4.00;;;1.33;;
38089;SDS011;23904;52.322;10.232;2022-09-20T19:32:21;6.97;;;1.80;;
38089;SDS011;23904;52.322;10.232;2022-09-20T19:34:50;3.90;;;1.58;;
38089;SDS011;23904;52.322;10.232;2022-09-20T19:37:36;4.90;;;1.58;;
38089;SDS011;23904;52.322;10.232;2022-09-20T19:40:46;4.40;;;2.17;;
38089;SDS011;23904;52.322;10.232;2022-09-20T19:43:57;12.40;;;2.03;;
38089;SDS011;23904;52.322;10.232;2022-09-20T19:52:19;12.55;;;4.43;;
38089;SDS011;23904;52.322;10.232;2022-09-20T19:54:48;8.57;;;3.45;;
38089;SDS011;23904;52.322;10.232;2022-09-20T19:57:17;9.43;;;3.17;;
38089;SDS011;23904;52.322;10.232;2022-09-20T19:59:48;8.38;;;3.30;;
38089;SDS011;23904;52.322;10.232;2022-09-20T20:02:15;8.80;;;3.60;;
38089;SDS011;23904;52.322;10.232;2022-09-20T20:04:41;10.55;;;3.55;;
38089;SDS011;23904;52.322;10.232;2022-09-20T20:10:17;8.70;;;2.42;;
38089;SDS011;23904;52.322;10.232;2022-09-20T20:13:20;7.70;;;1.92;;
38089;SDS011;23904;52.322;10.232;2022-09-20T20:16:16;5.72;;;1.50;;
38089;SDS011;23904;52.322;10.232;2022-09-20T20:21:56;6.85;;;1.65;;
38089;SDS011;23904;52.322;10.232;2022-09-20T20:24:33;3.75;;;1.65;;
38089;SDS011;23904;52.322;10.232;2022-09-20T20:27:13;4.20;;;1.98;;
38089;SDS011;23904;52.322;10.232;2022-09-20T20:29:39;5.10;;;2.33;;
38089;SDS011;23904;52.322;10.232;2022-09-20T20:32:05;4.00;;;1.42;;
38089;SDS011;23904;52.322;10.232;2022-09-20T20:34:30;8.10;;;2.38;;
38089;SDS011;23904;52.322;10.232;2022-09-20T20:37:00;6.60;;;1.90;;
38089;SDS011;23904;52.322;10.232;2022-09-20T20:39:27;5.25;;;1.90;;